sensor_id;sensor_type;location;lat;lon;timestamp;P1;durP1;ratioP1;P2;durP2;ratioP2
6566;SDS011;3317;43.994;22.878;2022-07-06T00:01:23;13.00;;;10.57;;
6566;SDS011;3317;43.994;22.878;2022-07-06T00:03:55;11.90;;;10.53;;
6566;SDS011;3317;43.994;22.878;2022-07-06T00:06:23;19.13;;;11.40;;
6566;SDS011;3317;43.994;22.878;2022-07-06T00:08:51;15.50;;;11.00;;
6566;SDS011;3317;43.994;22.878;2022-07-06T00:11:22;13.20;;;10.97;;
6566;SDS011;3317;43.994;22.878;2022-07-06T00:13:50;14.20;;;10.33;;
6566;SDS011;3317;43.994;22.878;2022-07-06T00:16:18;16.30;;;11.53;;
6566;SDS011;3317;43.994;22.878;2022-07-06T00:18:45;13.80;;;10.50;;
6566;SDS011;3317;43.994;22.878;2022-07-06T00:21:17;14.57;;;10.43;;
6566;SDS011;3317;43.994;22.878;2022-07-06T00:23:45;12.93;;;10.03;;
6566;SDS011;3317;43.994;22.878;2022-07-06T00:26:17;14.37;;;9.40;;
6566;SDS011;3317;43.994;22.878;2022-07-06T00:28:45;15.90;;;10.70;;
6566;SDS011;3317;43.994;22.878;2022-07-06T00:31:14;12.57;;;10.80;;
6566;SDS011;3317;43.994;22.878;2022-07-06T00:33:42;15.80;;;10.93;;
6566;SDS011;3317;43.994;22.878;2022-07-06T00:36:10;14.23;;;10.03;;
6566;SDS011;3317;43.994;22.878;2022-07-06T00:38:47;12.80;;;10.27;;
6566;SDS011;3317;43.994;22.878;2022-07-06T00:41:14;12.90;;;10.10;;
6566;SDS011;3317;43.994;22.878;2022-07-06T00:43:51;12.00;;;10.27;;
6566;SDS011;3317;43.994;22.878;2022-07-06T00:46:22;12.83;;;10.50;;
6566;SDS011;3317;43.994;22.878;2022-07-06T00:48:53;13.37;;;11.57;;
6566;SDS011;3317;43.994;22.878;2022-07-06T00:51:25;12.73;;;9.87;;
6566;SDS011;3317;43.994;22.878;2022-07-06T00:53:55;11.80;;;8.80;;
6566;SDS011;3317;43.994;22.878;2022-07-06T00:56:29;18.60;;;10.30;;
6566;SDS011;3317;43.994;22.878;2022-07-06T00:58:57;11.13;;;9.97;;
6566;SDS011;3317;43.994;22.878;2022-07-06T01:01:27;16.07;;;10.90;;
6566;SDS011;3317;43.994;22.878;2022-07-06T01:03:55;13.33;;;10.57;;
6566;SDS011;3317;43.994;22.878;2022-07-06T01:06:26;13.77;;;10.80;;
6566;SDS011;3317;43.994;22.878;2022-07-06T01:08:54;11.10;;;9.70;;
6566;SDS011;3317;43.994;22.878;2022-07-06T01:11:23;17.80;;;10.87;;
6566;SDS011;3317;43.994;22.878;2022-07-06T01:13:50;13.73;;;10.43;;
6566;SDS011;3317;43.994;22.878;2022-07-06T01:16:18;13.30;;;9.80;;
6566;SDS011;3317;43.994;22.878;2022-07-06T01:18:46;13.10;;;10.10;;
6566;SDS011;3317;43.994;22.878;2022-07-06T01:21:17;11.27;;;9.30;;
6566;SDS011;3317;43.994;22.878;2022-07-06T01:23:46;13.23;;;10.53;;
6566;SDS011;3317;43.994;22.878;2022-07-06T01:26:15;10.60;;;9.50;;
6566;SDS011;3317;43.994;22.878;2022-07-06T01:28:45;14.43;;;10.33;;
6566;SDS011;3317;43.994;22.878;2022-07-06T01:31:17;11.67;;;9.40;;
6566;SDS011;3317;43.994;22.878;2022-07-06T01:33:47;12.77;;;10.17;;
6566;SDS011;3317;43.994;22.878;2022-07-06T01:36:18;11.00;;;9.10;;
6566;SDS011;3317;43.994;22.878;2022-07-06T01:38:48;11.43;;;9.57;;
6566;SDS011;3317;43.994;22.878;2022-07-06T01:41:17;12.00;;;9.97;;
6566;SDS011;3317;43.994;22.878;2022-07-06T01:43:45;13.77;;;11.03;;
6566;SDS011;3317;43.994;22.878;2022-07-06T01:46:14;11.47;;;9.53;;
6566;SDS011;3317;43.994;22.878;2022-07-06T01:48:41;16.53;;;11.00;;
6566;SDS011;3317;43.994;22.878;2022-07-06T01:51:20;17.47;;;10.60;;
6566;SDS011;3317;43.994;22.878;2022-07-06T01:53:49;12.33;;;9.63;;
6566;SDS011;3317;43.994;22.878;2022-07-06T01:56:18;12.50;;;8.70;;
6566;SDS011;3317;43.994;22.878;2022-07-06T01:58:47;11.47;;;8.07;;
6566;SDS011;3317;43.994;22.878;2022-07-06T02:01:18;12.40;;;8.50;;
6566;SDS011;3317;43.994;22.878;2022-07-06T02:03:46;11.33;;;8.70;;
6566;SDS011;3317;43.994;22.878;2022-07-06T02:06:15;9.33;;;8.10;;
6566;SDS011;3317;43.994;22.878;2022-07-06T02:08:44;11.63;;;8.00;;
6566;SDS011;3317;43.994;22.878;2022-07-06T02:11:12;11.70;;;8.50;;
6566;SDS011;3317;43.994;22.878;2022-07-06T02:13:40;10.50;;;8.63;;
6566;SDS011;3317;43.994;22.878;2022-07-06T02:16:10;12.93;;;8.03;;
6566;SDS011;3317;43.994;22.878;2022-07-06T02:18:38;12.50;;;9.00;;
6566;SDS011;3317;43.994;22.878;2022-07-06T02:21:05;9.63;;;8.40;;
6566;SDS011;3317;43.994;22.878;2022-07-06T02:23:33;12.67;;;8.10;;
6566;SDS011;3317;43.994;22.878;2022-07-06T02:26:03;13.10;;;9.30;;
6566;SDS011;3317;43.994;22.878;2022-07-06T02:28:30;12.83;;;9.03;;
6566;SDS011;3317;43.994;22.878;2022-07-06T02:30:59;9.73;;;8.17;;
6566;SDS011;3317;43.994;22.878;2022-07-06T02:33:27;11.20;;;8.57;;
6566;SDS011;3317;43.994;22.878;2022-07-06T02:35:56;13.33;;;8.17;;
6566;SDS011;3317;43.994;22.878;2022-07-06T02:38:24;10.93;;;8.43;;
6566;SDS011;3317;43.994;22.878;2022-07-06T02:40:51;9.23;;;8.27;;
6566;SDS011;3317;43.994;22.878;2022-07-06T02:43:23;10.80;;;8.63;;
6566;SDS011;3317;43.994;22.878;2022-07-06T02:45:50;10.37;;;8.10;;
6566;SDS011;3317;43.994;22.878;2022-07-06T02:48:18;9.60;;;8.10;;
6566;SDS011;3317;43.994;22.878;2022-07-06T02:50:46;10.30;;;8.00;;
6566;SDS011;3317;43.994;22.878;2022-07-06T02:53:14;11.03;;;8.67;;
6566;SDS011;3317;43.994;22.878;2022-07-06T02:55:42;13.80;;;8.70;;
6566;SDS011;3317;43.994;22.878;2022-07-06T02:58:31;11.50;;;8.53;;
6566;SDS011;3317;43.994;22.878;2022-07-06T03:01:00;12.77;;;8.37;;
6566;SDS011;3317;43.994;22.878;2022-07-06T03:03:28;9.67;;;8.13;;
6566;SDS011;3317;43.994;22.878;2022-07-06T03:05:55;11.90;;;9.10;;
6566;SDS011;3317;43.994;22.878;2022-07-06T03:08:24;10.50;;;8.40;;
6566;SDS011;3317;43.994;22.878;2022-07-06T03:10:52;13.23;;;8.40;;
6566;SDS011;3317;43.994;22.878;2022-07-06T03:13:27;9.30;;;8.30;;
6566;SDS011;3317;43.994;22.878;2022-07-06T03:15:56;17.57;;;9.37;;
6566;SDS011;3317;43.994;22.878;2022-07-06T03:18:27;12.20;;;7.93;;
6566;SDS011;3317;43.994;22.878;2022-07-06T03:20:58;11.57;;;8.43;;
6566;SDS011;3317;43.994;22.878;2022-07-06T03:23:29;12.17;;;7.40;;
6566;SDS011;3317;43.994;22.878;2022-07-06T03:25:58;10.63;;;8.27;;
6566;SDS011;3317;43.994;22.878;2022-07-06T03:28:26;10.57;;;8.60;;
6566;SDS011;3317;43.994;22.878;2022-07-06T03:30:56;9.70;;;8.37;;
6566;SDS011;3317;43.994;22.878;2022-07-06T03:33:26;9.20;;;8.30;;
6566;SDS011;3317;43.994;22.878;2022-07-06T03:35:58;11.83;;;8.70;;
6566;SDS011;3317;43.994;22.878;2022-07-06T03:38:27;10.73;;;8.30;;
6566;SDS011;3317;43.994;22.878;2022-07-06T03:40:55;12.53;;;8.43;;
6566;SDS011;3317;43.994;22.878;2022-07-06T03:43:22;19.83;;;8.90;;
6566;SDS011;3317;43.994;22.878;2022-07-06T03:45:53;14.50;;;8.83;;
6566;SDS011;3317;43.994;22.878;2022-07-06T03:48:27;15.07;;;8.57;;
6566;SDS011;3317;43.994;22.878;2022-07-06T03:50:55;11.13;;;8.70;;
6566;SDS011;3317;43.994;22.878;2022-07-06T03:53:22;12.13;;;9.00;;
6566;SDS011;3317;43.994;22.878;2022-07-06T03:55:49;11.13;;;8.20;;
6566;SDS011;3317;43.994;22.878;2022-07-06T03:58:30;11.30;;;8.20;;
6566;SDS011;3317;43.994;22.878;2022-07-06T04:01:02;14.07;;;8.50;;
6566;SDS011;3317;43.994;22.878;2022-07-06T04:03:33;8.87;;;7.60;;
6566;SDS011;3317;43.994;22.878;2022-07-06T04:06:05;11.87;;;9.00;;
6566;SDS011;3317;43.994;22.878;2022-07-06T04:08:33;14.03;;;7.90;;
6566;SDS011;3317;43.994;22.878;2022-07-06T04:11:01;12.40;;;8.07;;
6566;SDS011;3317;43.994;22.878;2022-07-06T04:13:28;9.40;;;7.97;;
6566;SDS011;3317;43.994;22.878;2022-07-06T04:15:57;11.17;;;8.10;;
6566;SDS011;3317;43.994;22.878;2022-07-06T04:18:26;13.60;;;7.60;;
6566;SDS011;3317;43.994;22.878;2022-07-06T04:20:55;13.80;;;7.80;;
6566;SDS011;3317;43.994;22.878;2022-07-06T04:23:24;9.77;;;7.20;;
6566;SDS011;3317;43.994;22.878;2022-07-06T04:26:02;10.00;;;8.37;;
6566;SDS011;3317;43.994;22.878;2022-07-06T04:28:34;10.43;;;8.17;;
6566;SDS011;3317;43.994;22.878;2022-07-06T04:31:03;10.70;;;8.40;;
6566;SDS011;3317;43.994;22.878;2022-07-06T04:33:32;12.20;;;8.73;;
6566;SDS011;3317;43.994;22.878;2022-07-06T04:36:00;9.40;;;8.27;;
6566;SDS011;3317;43.994;22.878;2022-07-06T04:38:27;12.60;;;9.07;;
6566;SDS011;3317;43.994;22.878;2022-07-06T04:40:54;10.60;;;9.00;;
6566;SDS011;3317;43.994;22.878;2022-07-06T04:43:21;15.07;;;9.50;;
6566;SDS011;3317;43.994;22.878;2022-07-06T04:45:54;13.97;;;9.60;;
6566;SDS011;3317;43.994;22.878;2022-07-06T04:48:26;13.20;;;8.53;;
6566;SDS011;3317;43.994;22.878;2022-07-06T04:50:56;10.90;;;7.90;;
6566;SDS011;3317;43.994;22.878;2022-07-06T04:53:26;12.60;;;8.00;;
6566;SDS011;3317;43.994;22.878;2022-07-06T04:55:55;9.00;;;7.87;;
6566;SDS011;3317;43.994;22.878;2022-07-06T04:58:22;17.30;;;8.00;;
6566;SDS011;3317;43.994;22.878;2022-07-06T05:00:50;9.33;;;7.20;;
6566;SDS011;3317;43.994;22.878;2022-07-06T05:03:19;13.57;;;8.47;;
6566;SDS011;3317;43.994;22.878;2022-07-06T05:05:46;12.27;;;8.77;;
6566;SDS011;3317;43.994;22.878;2022-07-06T05:08:16;9.30;;;7.90;;
6566;SDS011;3317;43.994;22.878;2022-07-06T05:10:45;12.13;;;8.40;;
6566;SDS011;3317;43.994;22.878;2022-07-06T05:13:16;12.20;;;7.90;;
6566;SDS011;3317;43.994;22.878;2022-07-06T05:15:44;11.37;;;8.00;;
6566;SDS011;3317;43.994;22.878;2022-07-06T05:18:11;11.13;;;8.40;;
6566;SDS011;3317;43.994;22.878;2022-07-06T05:20:39;13.83;;;9.10;;
6566;SDS011;3317;43.994;22.878;2022-07-06T05:23:08;11.37;;;8.83;;
6566;SDS011;3317;43.994;22.878;2022-07-06T05:25:38;11.60;;;8.90;;
6566;SDS011;3317;43.994;22.878;2022-07-06T05:28:06;11.07;;;9.50;;
6566;SDS011;3317;43.994;22.878;2022-07-06T05:30:33;10.47;;;9.00;;
6566;SDS011;3317;43.994;22.878;2022-07-06T05:33:00;12.57;;;9.70;;
6566;SDS011;3317;43.994;22.878;2022-07-06T05:35:28;12.73;;;9.10;;
6566;SDS011;3317;43.994;22.878;2022-07-06T05:37:58;13.13;;;10.17;;
6566;SDS011;3317;43.994;22.878;2022-07-06T05:40:25;11.30;;;10.20;;
6566;SDS011;3317;43.994;22.878;2022-07-06T05:42:56;11.60;;;10.40;;
6566;SDS011;3317;43.994;22.878;2022-07-06T05:45:28;18.30;;;10.97;;
6566;SDS011;3317;43.994;22.878;2022-07-06T05:47:57;11.03;;;9.93;;
6566;SDS011;3317;43.994;22.878;2022-07-06T05:50:42;12.73;;;11.23;;
6566;SDS011;3317;43.994;22.878;2022-07-06T05:53:10;11.37;;;10.20;;
6566;SDS011;3317;43.994;22.878;2022-07-06T05:55:37;13.93;;;10.90;;
6566;SDS011;3317;43.994;22.878;2022-07-06T05:58:09;16.80;;;11.37;;
6566;SDS011;3317;43.994;22.878;2022-07-06T06:00:36;17.10;;;11.97;;
6566;SDS011;3317;43.994;22.878;2022-07-06T06:03:06;16.50;;;12.47;;
6566;SDS011;3317;43.994;22.878;2022-07-06T06:05:33;12.50;;;10.80;;
6566;SDS011;3317;43.994;22.878;2022-07-06T06:08:01;16.70;;;13.50;;
6566;SDS011;3317;43.994;22.878;2022-07-06T06:10:29;18.20;;;13.07;;
6566;SDS011;3317;43.994;22.878;2022-07-06T06:12:59;14.10;;;12.33;;
6566;SDS011;3317;43.994;22.878;2022-07-06T06:15:28;15.17;;;13.00;;
6566;SDS011;3317;43.994;22.878;2022-07-06T06:17:58;13.63;;;11.23;;
6566;SDS011;3317;43.994;22.878;2022-07-06T06:20:28;14.53;;;12.83;;
6566;SDS011;3317;43.994;22.878;2022-07-06T06:22:58;13.37;;;11.97;;
6566;SDS011;3317;43.994;22.878;2022-07-06T06:25:30;15.27;;;13.13;;
6566;SDS011;3317;43.994;22.878;2022-07-06T06:27:58;18.87;;;14.10;;
6566;SDS011;3317;43.994;22.878;2022-07-06T06:30:28;16.13;;;13.43;;
6566;SDS011;3317;43.994;22.878;2022-07-06T06:33:05;16.47;;;13.97;;
6566;SDS011;3317;43.994;22.878;2022-07-06T06:35:34;15.60;;;13.27;;
6566;SDS011;3317;43.994;22.878;2022-07-06T06:38:01;18.87;;;14.00;;
6566;SDS011;3317;43.994;22.878;2022-07-06T06:40:44;15.57;;;13.23;;
6566;SDS011;3317;43.994;22.878;2022-07-06T06:43:13;15.43;;;13.70;;
6566;SDS011;3317;43.994;22.878;2022-07-06T06:45:42;24.87;;;13.67;;
6566;SDS011;3317;43.994;22.878;2022-07-06T06:48:18;17.23;;;13.30;;
6566;SDS011;3317;43.994;22.878;2022-07-06T06:50:49;20.37;;;14.77;;
6566;SDS011;3317;43.994;22.878;2022-07-06T06:53:16;15.73;;;12.90;;
6566;SDS011;3317;43.994;22.878;2022-07-06T06:55:44;16.03;;;14.33;;
6566;SDS011;3317;43.994;22.878;2022-07-06T06:58:11;14.80;;;12.77;;
6566;SDS011;3317;43.994;22.878;2022-07-06T07:00:47;17.07;;;14.20;;
6566;SDS011;3317;43.994;22.878;2022-07-06T07:03:15;15.37;;;13.60;;
6566;SDS011;3317;43.994;22.878;2022-07-06T07:05:42;15.43;;;13.47;;
6566;SDS011;3317;43.994;22.878;2022-07-06T07:08:16;17.90;;;13.83;;
6566;SDS011;3317;43.994;22.878;2022-07-06T07:10:44;16.17;;;13.70;;
6566;SDS011;3317;43.994;22.878;2022-07-06T07:13:11;18.17;;;14.97;;
6566;SDS011;3317;43.994;22.878;2022-07-06T07:15:39;15.17;;;13.57;;
6566;SDS011;3317;43.994;22.878;2022-07-06T07:18:10;16.90;;;13.57;;
6566;SDS011;3317;43.994;22.878;2022-07-06T07:20:39;15.07;;;12.97;;
6566;SDS011;3317;43.994;22.878;2022-07-06T07:23:10;18.27;;;14.13;;
6566;SDS011;3317;43.994;22.878;2022-07-06T07:25:38;15.90;;;12.37;;
6566;SDS011;3317;43.994;22.878;2022-07-06T07:28:07;14.90;;;12.53;;
6566;SDS011;3317;43.994;22.878;2022-07-06T07:30:35;15.60;;;13.00;;
6566;SDS011;3317;43.994;22.878;2022-07-06T07:33:02;18.47;;;12.97;;
6566;SDS011;3317;43.994;22.878;2022-07-06T07:35:32;14.37;;;12.70;;
6566;SDS011;3317;43.994;22.878;2022-07-06T07:38:01;17.10;;;13.60;;
6566;SDS011;3317;43.994;22.878;2022-07-06T07:40:29;17.70;;;13.70;;
6566;SDS011;3317;43.994;22.878;2022-07-06T07:42:57;16.33;;;13.60;;
6566;SDS011;3317;43.994;22.878;2022-07-06T07:45:24;18.67;;;13.80;;
6566;SDS011;3317;43.994;22.878;2022-07-06T07:47:53;15.83;;;12.47;;
6566;SDS011;3317;43.994;22.878;2022-07-06T07:50:21;15.17;;;13.43;;
6566;SDS011;3317;43.994;22.878;2022-07-06T07:52:50;18.23;;;12.43;;
6566;SDS011;3317;43.994;22.878;2022-07-06T07:55:18;14.73;;;12.47;;
6566;SDS011;3317;43.994;22.878;2022-07-06T07:57:47;15.70;;;13.67;;
6566;SDS011;3317;43.994;22.878;2022-07-06T08:00:14;14.73;;;13.07;;
6566;SDS011;3317;43.994;22.878;2022-07-06T08:02:42;14.73;;;12.37;;
6566;SDS011;3317;43.994;22.878;2022-07-06T08:05:11;16.07;;;12.40;;
6566;SDS011;3317;43.994;22.878;2022-07-06T08:07:40;15.80;;;12.90;;
6566;SDS011;3317;43.994;22.878;2022-07-06T08:10:10;17.33;;;13.17;;
6566;SDS011;3317;43.994;22.878;2022-07-06T08:12:38;13.70;;;12.17;;
6566;SDS011;3317;43.994;22.878;2022-07-06T08:15:06;16.00;;;12.83;;
6566;SDS011;3317;43.994;22.878;2022-07-06T08:17:34;15.33;;;12.73;;
6566;SDS011;3317;43.994;22.878;2022-07-06T08:20:02;13.60;;;12.20;;
6566;SDS011;3317;43.994;22.878;2022-07-06T08:22:34;18.10;;;14.00;;
6566;SDS011;3317;43.994;22.878;2022-07-06T08:25:02;15.17;;;13.53;;
6566;SDS011;3317;43.994;22.878;2022-07-06T08:27:33;16.83;;;13.80;;
6566;SDS011;3317;43.994;22.878;2022-07-06T08:30:00;14.83;;;12.97;;
6566;SDS011;3317;43.994;22.878;2022-07-06T08:32:28;13.80;;;12.37;;
6566;SDS011;3317;43.994;22.878;2022-07-06T08:34:56;14.43;;;12.87;;
6566;SDS011;3317;43.994;22.878;2022-07-06T08:37:24;17.33;;;11.93;;
6566;SDS011;3317;43.994;22.878;2022-07-06T08:39:52;13.07;;;11.67;;
6566;SDS011;3317;43.994;22.878;2022-07-06T08:42:19;14.00;;;12.50;;
6566;SDS011;3317;43.994;22.878;2022-07-06T08:44:59;14.47;;;12.13;;
6566;SDS011;3317;43.994;22.878;2022-07-06T08:47:29;15.93;;;12.50;;
6566;SDS011;3317;43.994;22.878;2022-07-06T08:49:57;17.00;;;12.33;;
6566;SDS011;3317;43.994;22.878;2022-07-06T08:52:30;14.10;;;12.60;;
6566;SDS011;3317;43.994;22.878;2022-07-06T08:54:58;13.43;;;12.03;;
6566;SDS011;3317;43.994;22.878;2022-07-06T08:57:27;13.17;;;10.50;;
6566;SDS011;3317;43.994;22.878;2022-07-06T09:00:00;14.07;;;11.93;;
6566;SDS011;3317;43.994;22.878;2022-07-06T09:02:29;12.23;;;10.93;;
6566;SDS011;3317;43.994;22.878;2022-07-06T09:04:57;10.97;;;9.87;;
6566;SDS011;3317;43.994;22.878;2022-07-06T09:07:28;11.90;;;10.60;;
6566;SDS011;3317;43.994;22.878;2022-07-06T09:09:55;11.63;;;10.10;;
6566;SDS011;3317;43.994;22.878;2022-07-06T09:12:25;12.13;;;10.83;;
6566;SDS011;3317;43.994;22.878;2022-07-06T09:14:54;13.20;;;11.03;;
6566;SDS011;3317;43.994;22.878;2022-07-06T09:17:26;10.93;;;9.80;;
6566;SDS011;3317;43.994;22.878;2022-07-06T09:19:55;11.67;;;9.73;;
6566;SDS011;3317;43.994;22.878;2022-07-06T09:22:26;11.20;;;9.77;;
6566;SDS011;3317;43.994;22.878;2022-07-06T09:25:05;10.80;;;9.33;;
6566;SDS011;3317;43.994;22.878;2022-07-06T09:27:37;12.37;;;9.50;;
6566;SDS011;3317;43.994;22.878;2022-07-06T09:30:05;11.63;;;9.63;;
6566;SDS011;3317;43.994;22.878;2022-07-06T09:32:39;12.60;;;9.53;;
6566;SDS011;3317;43.994;22.878;2022-07-06T09:35:19;11.20;;;9.33;;
6566;SDS011;3317;43.994;22.878;2022-07-06T09:37:47;10.90;;;9.03;;
6566;SDS011;3317;43.994;22.878;2022-07-06T09:40:29;10.27;;;9.17;;
6566;SDS011;3317;43.994;22.878;2022-07-06T09:43:08;10.07;;;8.90;;
6566;SDS011;3317;43.994;22.878;2022-07-06T09:45:40;15.27;;;9.40;;
6566;SDS011;3317;43.994;22.878;2022-07-06T09:48:13;12.07;;;9.20;;
6566;SDS011;3317;43.994;22.878;2022-07-06T09:50:44;9.90;;;8.90;;
6566;SDS011;3317;43.994;22.878;2022-07-06T09:53:16;12.13;;;8.80;;
6566;SDS011;3317;43.994;22.878;2022-07-06T09:55:46;10.07;;;9.10;;
6566;SDS011;3317;43.994;22.878;2022-07-06T09:58:15;9.23;;;8.33;;
6566;SDS011;3317;43.994;22.878;2022-07-06T10:00:44;8.40;;;7.60;;
6566;SDS011;3317;43.994;22.878;2022-07-06T10:03:16;8.80;;;7.90;;
6566;SDS011;3317;43.994;22.878;2022-07-06T10:05:44;10.97;;;8.83;;
6566;SDS011;3317;43.994;22.878;2022-07-06T10:08:18;9.50;;;8.60;;
6566;SDS011;3317;43.994;22.878;2022-07-06T10:10:46;8.80;;;8.00;;
6566;SDS011;3317;43.994;22.878;2022-07-06T10:13:15;9.87;;;8.97;;
6566;SDS011;3317;43.994;22.878;2022-07-06T10:15:48;8.97;;;8.17;;
6566;SDS011;3317;43.994;22.878;2022-07-06T10:18:18;9.40;;;8.47;;
6566;SDS011;3317;43.994;22.878;2022-07-06T10:20:46;8.67;;;7.83;;
6566;SDS011;3317;43.994;22.878;2022-07-06T10:23:15;9.23;;;8.33;;
6566;SDS011;3317;43.994;22.878;2022-07-06T10:25:43;9.00;;;8.10;;
6566;SDS011;3317;43.994;22.878;2022-07-06T10:28:12;9.10;;;8.20;;
6566;SDS011;3317;43.994;22.878;2022-07-06T10:30:40;8.20;;;7.50;;
6566;SDS011;3317;43.994;22.878;2022-07-06T10:33:10;10.33;;;7.40;;
6566;SDS011;3317;43.994;22.878;2022-07-06T10:35:44;7.90;;;7.20;;
6566;SDS011;3317;43.994;22.878;2022-07-06T10:38:13;8.00;;;7.30;;
6566;SDS011;3317;43.994;22.878;2022-07-06T10:40:42;10.20;;;7.30;;
6566;SDS011;3317;43.994;22.878;2022-07-06T10:43:33;8.33;;;7.63;;
6566;SDS011;3317;43.994;22.878;2022-07-06T10:46:07;7.83;;;7.20;;
6566;SDS011;3317;43.994;22.878;2022-07-06T10:48:36;9.07;;;8.17;;
6566;SDS011;3317;43.994;22.878;2022-07-06T10:51:05;8.50;;;7.17;;
6566;SDS011;3317;43.994;22.878;2022-07-06T10:53:37;6.80;;;6.20;;
6566;SDS011;3317;43.994;22.878;2022-07-06T10:56:10;6.90;;;6.30;;
6566;SDS011;3317;43.994;22.878;2022-07-06T10:58:41;8.23;;;6.10;;
6566;SDS011;3317;43.994;22.878;2022-07-06T11:01:40;6.30;;;5.60;;
6566;SDS011;3317;43.994;22.878;2022-07-06T11:04:42;10.50;;;6.57;;
6566;SDS011;3317;43.994;22.878;2022-07-06T11:07:14;6.20;;;5.67;;
6566;SDS011;3317;43.994;22.878;2022-07-06T11:09:46;6.50;;;5.70;;
6566;SDS011;3317;43.994;22.878;2022-07-06T11:12:59;5.80;;;5.30;;
6566;SDS011;3317;43.994;22.878;2022-07-06T11:37:01;3.50;;;3.20;;
6566;SDS011;3317;43.994;22.878;2022-07-06T11:39:30;3.70;;;3.40;;
6566;SDS011;3317;43.994;22.878;2022-07-06T11:42:00;4.20;;;3.60;;
6566;SDS011;3317;43.994;22.878;2022-07-06T11:44:30;3.33;;;3.03;;
6566;SDS011;3317;43.994;22.878;2022-07-06T11:46:58;6.13;;;3.10;;
6566;SDS011;3317;43.994;22.878;2022-07-06T11:49:28;3.60;;;3.30;;
6566;SDS011;3317;43.994;22.878;2022-07-06T11:52:05;3.80;;;3.07;;
6566;SDS011;3317;43.994;22.878;2022-07-06T11:54:35;3.93;;;3.63;;
6566;SDS011;3317;43.994;22.878;2022-07-06T11:57:03;5.03;;;3.23;;
6566;SDS011;3317;43.994;22.878;2022-07-06T11:59:41;2.70;;;2.37;;
6566;SDS011;3317;43.994;22.878;2022-07-06T12:02:13;3.37;;;2.70;;
6566;SDS011;3317;43.994;22.878;2022-07-06T12:04:44;3.67;;;3.00;;
6566;SDS011;3317;43.994;22.878;2022-07-06T12:10:08;2.60;;;2.40;;
6566;SDS011;3317;43.994;22.878;2022-07-06T12:12:44;5.60;;;3.67;;
6566;SDS011;3317;43.994;22.878;2022-07-06T12:15:11;4.30;;;3.30;;
6566;SDS011;3317;43.994;22.878;2022-07-06T12:17:39;3.27;;;2.97;;
6566;SDS011;3317;43.994;22.878;2022-07-06T12:20:09;3.70;;;2.60;;
6566;SDS011;3317;43.994;22.878;2022-07-06T12:22:42;3.83;;;2.97;;
6566;SDS011;3317;43.994;22.878;2022-07-06T12:25:09;3.33;;;3.03;;
6566;SDS011;3317;43.994;22.878;2022-07-06T12:27:43;3.00;;;2.70;;
6566;SDS011;3317;43.994;22.878;2022-07-06T12:30:33;4.30;;;2.47;;
6566;SDS011;3317;43.994;22.878;2022-07-06T12:33:10;3.50;;;3.20;;
6566;SDS011;3317;43.994;22.878;2022-07-06T12:35:51;6.63;;;3.07;;
6566;SDS011;3317;43.994;22.878;2022-07-06T12:38:23;5.67;;;2.97;;
6566;SDS011;3317;43.994;22.878;2022-07-06T12:41:04;4.33;;;3.60;;
6566;SDS011;3317;43.994;22.878;2022-07-06T12:43:35;2.70;;;2.50;;
6566;SDS011;3317;43.994;22.878;2022-07-06T12:49:00;2.90;;;2.57;;
6566;SDS011;3317;43.994;22.878;2022-07-06T12:54:17;2.70;;;2.50;;
6566;SDS011;3317;43.994;22.878;2022-07-06T12:57:07;5.23;;;2.97;;
6566;SDS011;3317;43.994;22.878;2022-07-06T12:59:38;3.33;;;3.03;;
6566;SDS011;3317;43.994;22.878;2022-07-06T13:02:08;8.93;;;3.03;;
6566;SDS011;3317;43.994;22.878;2022-07-06T13:04:53;3.60;;;2.73;;
6566;SDS011;3317;43.994;22.878;2022-07-06T13:07:27;2.93;;;2.70;;
6566;SDS011;3317;43.994;22.878;2022-07-06T13:09:58;3.20;;;2.80;;
6566;SDS011;3317;43.994;22.878;2022-07-06T13:12:49;5.10;;;3.10;;
6566;SDS011;3317;43.994;22.878;2022-07-06T13:15:46;5.00;;;3.50;;
6566;SDS011;3317;43.994;22.878;2022-07-06T13:21:36;3.73;;;3.33;;
6566;SDS011;3317;43.994;22.878;2022-07-06T13:24:55;3.10;;;2.80;;
6566;SDS011;3317;43.994;22.878;2022-07-06T13:34:01;3.07;;;2.77;;
6566;SDS011;3317;43.994;22.878;2022-07-06T13:36:31;3.27;;;2.40;;
6566;SDS011;3317;43.994;22.878;2022-07-06T13:39:01;5.80;;;5.13;;
6566;SDS011;3317;43.994;22.878;2022-07-06T13:41:37;8.83;;;7.50;;
6566;SDS011;3317;43.994;22.878;2022-07-06T13:44:12;10.20;;;8.63;;
6566;SDS011;3317;43.994;22.878;2022-07-06T13:46:44;11.93;;;10.73;;
6566;SDS011;3317;43.994;22.878;2022-07-06T13:49:16;13.60;;;11.30;;
6566;SDS011;3317;43.994;22.878;2022-07-06T13:51:43;11.87;;;10.67;;
6566;SDS011;3317;43.994;22.878;2022-07-06T13:54:12;11.87;;;10.67;;
6566;SDS011;3317;43.994;22.878;2022-07-06T13:56:40;13.53;;;12.23;;
6566;SDS011;3317;43.994;22.878;2022-07-06T13:59:12;13.03;;;11.80;;
6566;SDS011;3317;43.994;22.878;2022-07-06T14:01:39;12.90;;;11.60;;
6566;SDS011;3317;43.994;22.878;2022-07-06T14:04:08;13.20;;;11.97;;
6566;SDS011;3317;43.994;22.878;2022-07-06T14:06:46;14.20;;;11.97;;
6566;SDS011;3317;43.994;22.878;2022-07-06T14:09:13;13.23;;;11.90;;
6566;SDS011;3317;43.994;22.878;2022-07-06T14:11:46;12.30;;;11.03;;
6566;SDS011;3317;43.994;22.878;2022-07-06T14:14:19;11.40;;;10.30;;
6566;SDS011;3317;43.994;22.878;2022-07-06T14:16:46;10.50;;;9.50;;
6566;SDS011;3317;43.994;22.878;2022-07-06T14:19:22;9.83;;;8.97;;
6566;SDS011;3317;43.994;22.878;2022-07-06T14:22:12;12.20;;;9.80;;
6566;SDS011;3317;43.994;22.878;2022-07-06T14:25:04;11.10;;;9.73;;
6566;SDS011;3317;43.994;22.878;2022-07-06T14:28:01;11.60;;;10.50;;
6566;SDS011;3317;43.994;22.878;2022-07-06T14:30:52;12.53;;;10.10;;
6566;SDS011;3317;43.994;22.878;2022-07-06T14:33:33;10.23;;;9.23;;
6566;SDS011;3317;43.994;22.878;2022-07-06T14:36:02;8.93;;;8.03;;
6566;SDS011;3317;43.994;22.878;2022-07-06T14:38:30;9.27;;;7.77;;
6566;SDS011;3317;43.994;22.878;2022-07-06T14:40:59;8.40;;;7.60;;
6566;SDS011;3317;43.994;22.878;2022-07-06T14:43:30;8.57;;;6.97;;
6566;SDS011;3317;43.994;22.878;2022-07-06T14:46:11;6.10;;;5.60;;
6566;SDS011;3317;43.994;22.878;2022-07-06T14:48:42;6.10;;;5.60;;
6566;SDS011;3317;43.994;22.878;2022-07-06T14:51:41;6.20;;;5.60;;
6566;SDS011;3317;43.994;22.878;2022-07-06T14:58:15;6.80;;;6.10;;
6566;SDS011;3317;43.994;22.878;2022-07-06T15:01:21;8.97;;;6.60;;
6566;SDS011;3317;43.994;22.878;2022-07-06T15:03:51;7.13;;;5.63;;
6566;SDS011;3317;43.994;22.878;2022-07-06T15:06:22;6.90;;;6.20;;
6566;SDS011;3317;43.994;22.878;2022-07-06T15:15:22;6.90;;;6.30;;
6566;SDS011;3317;43.994;22.878;2022-07-06T15:21:06;6.70;;;6.00;;
6566;SDS011;3317;43.994;22.878;2022-07-06T15:24:18;7.40;;;6.80;;
6566;SDS011;3317;43.994;22.878;2022-07-06T15:27:01;6.93;;;6.27;;
6566;SDS011;3317;43.994;22.878;2022-07-06T15:29:31;7.23;;;6.63;;
6566;SDS011;3317;43.994;22.878;2022-07-06T15:32:15;6.53;;;6.03;;
6566;SDS011;3317;43.994;22.878;2022-07-06T15:37:42;6.63;;;6.03;;
6566;SDS011;3317;43.994;22.878;2022-07-06T15:40:39;6.30;;;4.73;;
6566;SDS011;3317;43.994;22.878;2022-07-06T15:43:15;5.37;;;4.87;;
6566;SDS011;3317;43.994;22.878;2022-07-06T15:45:54;6.97;;;4.63;;
6566;SDS011;3317;43.994;22.878;2022-07-06T15:48:41;6.30;;;5.70;;
6566;SDS011;3317;43.994;22.878;2022-07-06T15:51:16;7.30;;;5.80;;
6566;SDS011;3317;43.994;22.878;2022-07-06T15:53:49;8.60;;;6.80;;
6566;SDS011;3317;43.994;22.878;2022-07-06T15:56:38;10.53;;;7.67;;
6566;SDS011;3317;43.994;22.878;2022-07-06T15:59:17;7.53;;;5.20;;
6566;SDS011;3317;43.994;22.878;2022-07-06T16:01:48;6.00;;;4.87;;
6566;SDS011;3317;43.994;22.878;2022-07-06T16:04:17;5.30;;;4.13;;
6566;SDS011;3317;43.994;22.878;2022-07-06T16:06:59;4.27;;;3.87;;
6566;SDS011;3317;43.994;22.878;2022-07-06T16:09:26;5.07;;;4.10;;
6566;SDS011;3317;43.994;22.878;2022-07-06T16:11:58;4.07;;;3.73;;